Forest Hill, Texas
Current Conditions -  °F | °C
As of 11:15 PM on Tuesday 25 Nov 2014 (Local Time) from KFWS Reporting Station
Clear Clear  
Wind Chill: 37°   Ceiling: Unl
Heat Index: 40°   Visibility: 10mi
Dew Point: 30°   Wind: 5mph
Humidity: 68%   Direction: 210°SSW
Pressure: 30.14"   Gusts: NA
Location:  32.66°N, 97.27°W
Report Text: KFWS 260515Z AUTO 21004KT 10SM CLR 04/M01 A3014 RMK AO2 T00441010
Loading
Personal Weather Stations






























Interactive Weather Map New forecast layout! Learn more

10-Day Weather Forecast

Advertisements
Track Severe Weather on mobile